Aviation Digital Data Service (ADDS)

Output produced by METARs form (1827 UTC 16 August 2018)
found at http://www.aviationweather.gov/adds/metars/
 
KEAR 161739Z 1618/1718 09006KT P6SM BKN045 
     FM161900 07006KT P6SM SCT070 
     FM170000 04005KT P6SM SCT250 
     FM171000 VRB03KT 4SM BR SCT010 SCT025 
     FM171500 VRB03KT P6SM SCT025
       
KEAT 161720Z 1618/1718 VRB05KT 2SM FU HZ SCT020 BKN120 
     FM162000 13007KT 3SM FU HZ SCT030 BKN120 
     FM170200 31009KT 5SM FU HZ SCT120 
     FM170600 32011KT 6SM FU FEW150 
     FM171700 32008KT 6SM FU FEW150
       
KEAU 161720Z 1618/1718 04005KT P6SM VCSH SCT040 BKN090 
     FM162000 03005KT P6SM VCTS SCT025 BKN050CB 
     TEMPO 1620/1624 2SM +TSRA BR OVC020CB 
     FM170100 03003KT P6SM SCT100 
     FM170800 00000KT 2SM BR SCT005 
     FM171100 VRB02KT 1/2SM FG BKN003 
     FM171500 02004KT P6SM FEW020
       
KECG 161732Z 1618/1718 24005KT P6SM SCT060 
     FM162300 18005KT P6SM SKC 
     FM170400 20006KT P6SM SKC 
     FM171400 21006KT P6SM FEW250
       
TAF KEDW 161800Z 1618/1724 VRB06KT 9999 FEW080 QNH3002INS 
     BECMG 1620/1621 22012KT 9999 SCT080 QNH2988INS TS OMTNS 
     BECMG 1622/1623 24015G25KT 9999 SCT080 520009 QNH2997INS TS OMTNS 
     BECMG 1701/1702 23010G20KT 9999 FEW080 510009 QNH2999INS 
     BECMG 1703/1704 22009KT 9999 SKC QNH3002INS 
     BECMG 1722/1723 23012G18KT 9999 SCT300 QNH3001INS TS OMTNS TX38/1623Z TN22/1713Z
       
KEED 161737Z 1618/1718 17008KT P6SM SCT120 SCT200 
     FM162300 20010KT P6SM VCTS SCT100CB 
     FM170400 24008KT P6SM SCT120 BKN200 
     FM171600 16008KT P6SM SCT120 BKN200
       
KEET 161732Z 1618/1718 18006KT P6SM SCT030 SCT250 
     FM170100 18002KT P6SM FEW050 SCT250 
     FM170600 20006KT P6SM BKN250
       
TAF KEFD 161200Z 1612/1718 20006KT 9999 BKN250 QNH2997INS 
     TEMPO 1612/1615 BKN015 
     TEMPO 1618/1624 VRB12G18KT 8000 -TSRA BKN020CB 
     BECMG 1700/1701 17009KT 9999 FEW030 QNH2999INS 
     BECMG 1710/1711 18006KT 9999 BKN040 QNH3000INS TX33/1621Z TN25/1612Z
       
KEGE 161816Z 1618/1718 25008KT P6SM VCTS SCT090CB BKN130 
     TEMPO 1618/1622 VRB15G30KT -TSRA BKN090CB OVC130 
     FM170100 36008KT P6SM SCT080 BKN120 
     FM170600 VRB04KT P6SM FEW080 SCT150
       
TAF KEGI 161700Z 1617/1723 16009KT 9999 VCSH SCT025 BKN080 BKN250 QNH3008INS 
     TEMPO 1617/1623 18015G20KT 4800 -TSRA BKN030CB BKN150 BKN250 
     BECMG 1700/1701 18006KT 9999 VCSH FEW015 SCT035 SCT080 BKN250 QNH3008INS 
     BECMG 1708/1709 18004KT 9999 -SHRA VCTS SCT015CB BKN020 BKN080 BKN250 QNH3006INS 
     BECMG 1712/1713 19006KT 9999 -SHRA VCTS BKN025CB BKN100 BKN250 QNH3011INS 
     TEMPO 1713/1717 20012G18KT 4800 -TSRA BKN025CB BKN100 BKN250 
     BECMG 1718/1719 20012KT 9999 -SHRA VCTS BKN025CB BKN100 BKN250 QNH3008INS TX29/1619Z TN23/1710Z
       
KEKN 161739Z 1618/1718 20005KT P6SM BKN040 
     FM162300 00000KT P6SM VCSH BKN040 
     FM170600 00000KT 4SM BR SCT090 
     FM171000 23006KT P6SM OVC040 
     FM171100 24009KT 6SM SHRA OVC040
       
KZZV 161746Z 1618/1718 20009KT 6SM -SHRA VCTS SCT015 OVC050CB 
     FM170000 17006KT P6SM VCSH SCT015 OVC060 
     FM170500 19007KT 4SM -SHRA BR BKN015 
     FM171600 24010G18KT P6SM VCTS OVC025CB
       
KELP 161739Z 1618/1718 24010KT P6SM FEW080 SCT140 BKN250 
     FM162100 24009KT P6SM VCTS SCT080CB BKN140 BKN200 
     FM170900 27007KT P6SM SCT070 BKN110 BKN200
       
KELY 161720Z 1618/1718 24006KT P6SM SCT120 
     FM162000 25008KT P6SM VCTS SCT120CB 
     TEMPO 1620/1624 VRB15G30KT 5SM TSRA FEW050 BKN090CB 
     FM170300 18007KT P6SM SCT120
       
KEKO 161720Z 1618/1718 18007KT P6SM SCT120 
     FM170100 08008KT P6SM VCTS BKN100CB 
     FM170400 VRB05KT P6SM SCT100 BKN250
       
TAF KEND 161800Z 1618/1724 18009KT 9999 BKN100 QNH2993INS 
     TEMPO 1618/1621 VRB10G20KT 4800 -TSRA BKN030CB 
     BECMG 1702/1703 17009KT 9999 FEW070 QNH2994INS TX31/1621Z TN21/1712Z
       
KENV 161726Z 1618/1718 11008KT P6SM SKC 
     FM162200 17010KT P6SM SCT090 BKN120 
     FM170300 35008KT P6SM SCT090 
     FM170900 VRB05KT P6SM FEW200
       
KENW 161734Z 1618/1718 09007KT P6SM SCT025 BKN035 
     FM162000 09006KT P6SM SCT035 BKN040 
     FM170900 VRB03KT 2SM BR VCSH BKN040 
     FM171400 36006KT P6SM BKN030 
     FM171600 02008KT P6SM BKN060
       
KERI 161720Z 1618/1718 19009KT P6SM VCSH OVC100 
     TEMPO 1619/1623 4SM -RA BR OVC020 
     FM170000 20010G17KT P6SM VCSH OVC030 
     FM170600 20012G20KT P6SM OVC010 
     TEMPO 1709/1713 4SM BR OVC009 
     FM171500 23011G17KT P6SM OVC020
       
KEUG 161732Z 1618/1718 00000KT P6SM OVC012 
     FM162000 36004KT P6SM SCT015 
     FM162200 35008KT P6SM SCT250 
     FM170700 21004KT P6SM SCT250 
     FM171300 20003KT P6SM BKN015
       
KEUL 161736Z 1618/1718 VRB06KT P6SM SCT150 
     FM170100 VRB06KT P6SM VCSH BKN120 
     TEMPO 1701/1703 VRB15G25KT 
     FM170400 VRB06KT P6SM SCT120
       
KEVV 161720Z 1618/1718 22008G17KT P6SM VCSH OVC028 
     TEMPO 1618/1619 BKN018 
     FM162000 22008KT P6SM VCTS SCT035CB BKN060 
     FM170000 21006KT P6SM FEW035 SCT100 
     FM170800 21004KT P6SM VCTS BKN040CB 
     FM171400 21006KT P6SM SCT007 BKN015
       
KEVW 161726Z 1618/1718 25007KT P6SM VCSH BKN100 
     FM162000 30008KT P6SM SCT100 
     FM170300 15006KT P6SM SKC
       
KEWN 161730Z 1618/1718 23004KT P6SM VCSH SCT040 
     FM170000 19005KT P6SM FEW150 
     FM171100 22004KT P6SM FEW045 FEW150
       
KEWR 161722Z 1618/1724 27010G16KT P6SM FEW050 SCT200 
     FM170000 25009KT P6SM FEW050 SCT200 
     FM170300 22005KT P6SM FEW050 SCT200 
     FM171300 20008KT P6SM FEW050 SCT150 
     FM171500 20012KT P6SM FEW050 SCT150 SCT250 
     FM171700 21013G22KT P6SM SCT050 SCT150 BKN250
       
KEYW 161720Z 1618/1718 12010KT P6SM SCT025